Latest Weather Observations for Maria Island

IDT60901

Issued at 9:31 pm EST Tuesday 26 May 2015 (issued every 10 minutes, with the page automatically refreshed every 10 minutes)

About weather observations | Map of Hobart area stations | Latest observations for Hobart area | Other Formats
Station Details ID: 092124 Name: MARIA ISLAND (POINT LESUEUR) Lat: -42.66 Lon: 148.02 Height: 28.0 m
Data from the previous 72 hours. | See also: Recent months at Maria Island
Date/Time
EST
Tmp

°C
App
Tmp
°C
Dew
Point
°C
Rel
Hum
%
Delta-T

°C
Wind Press
QNH
hPa
Press
MSL
hPa
Rain
since
9 am
mm
Dir
 
Spd
km/h
Gust
km/h
Spd
kts
Gust
kts
26/09:30pm 11.0 9.1 9.1 88 0.9 NNE 9 11 5 6 1024.0 1024.0 0.0
26/09:00pm 10.6 8.6 8.5 87 1.0 NNE 9 13 5 7 1024.1 1024.1 0.0
26/08:30pm 11.2 9.6 8.8 85 1.2 NNE 7 9 4 5 1024.3 1024.3 0.0
26/08:00pm 11.0 9.9 8.6 85 1.2 NNE 4 6 2 3 1024.5 1024.5 0.0
26/07:30pm 11.1 10.5 8.8 86 1.1 NE 2 6 1 3 1024.6 1024.6 0.0
26/07:00pm 11.1 10.5 9.0 87 1.0 ENE 2 4 1 2 1024.7 1024.7 0.0
26/06:30pm 11.0 10.0 8.9 87 1.0 E 4 6 2 3 1024.8 1024.8 0.0
26/06:00pm 11.1 9.5 8.7 85 1.2 E 7 9 4 5 1024.7 1024.7 0.0
26/05:30pm 11.5 10.1 8.7 83 1.4 E 6 6 3 3 1024.8 1024.8 0.0
26/05:00pm 11.6 10.1 8.6 82 1.5 E 6 7 3 4 1024.9 1024.9 0.0
26/04:30pm 11.8 10.2 8.6 81 1.6 E 7 11 4 6 1024.8 1024.8 0.0
26/04:00pm 12.1 10.1 8.8 80 1.6 E 9 13 5 7 1024.9 1024.9 0.0
26/03:30pm 12.4 10.1 8.9 79 1.8 E 11 13 6 7 1024.7 1024.7 0.0
26/03:00pm 12.6 10.3 9.1 79 1.8 E 11 13 6 7 1024.7 1024.7 0.0
26/02:30pm 12.9 11.0 9.0 77 2.0 E 9 15 5 8 1024.7 1024.7 0.0
26/02:00pm 12.9 10.2 9.0 77 2.0 E 13 17 7 9 1024.7 1024.7 0.0
26/01:30pm 13.6 11.0 9.3 75 2.2 E 13 17 7 9 1024.8 1024.8 0.0
26/01:00pm 13.5 11.1 8.8 73 2.4 ESE 11 13 6 7 1025.1 1025.1 0.0
26/12:30pm 13.0 11.6 8.9 76 2.1 S 6 7 3 4 1025.5 1025.5 0.0
26/12:00pm 13.1 12.0 8.6 74 2.2 WNW 4 6 2 3 1025.7 1025.7 0.0
26/11:30am 13.1 12.4 8.6 74 2.3 W 2 6 1 3 1026.0 1026.0 0.0
26/11:00am 12.3 10.8 8.6 78 1.8 N 6 7 3 4 1026.4 1026.4 0.0
26/10:30am 12.2 11.1 8.5 78 1.8 N 4 6 2 3 1026.7 1026.7 0.0
26/10:00am 11.6 10.2 8.8 83 1.4 N 6 7 3 4 1026.6 1026.6 0.0
26/09:30am 11.1 9.5 8.1 82 1.5 NNW 6 7 3 4 1026.6 1026.6 0.0
26/09:00am 10.0 7.8 7.9 87 1.0 WNW 9 11 5 6 1026.7 1026.7 0.0
26/08:30am 10.0 8.2 8.1 88 0.9 WNW 7 9 4 5 1026.5 1026.5 0.0
26/08:00am 8.9 7.0 7.5 91 0.7 NW 7 9 4 5 1026.4 1026.4 0.0
26/07:30am 8.6 6.8 7.2 91 0.7 N 6 7 3 4 1026.2 1026.2 0.0
26/07:00am 10.5 9.6 7.9 84 1.2 SSW 2 4 1 2 1025.9 1025.9 0.0
26/06:30am 9.8 8.0 7.2 84 1.2 N 6 6 3 3 1025.6 1025.6 0.0
26/06:00am 9.2 7.3 6.6 84 1.2 ENE 6 6 3 3 1025.4 1025.4 0.0
26/05:30am 10.3 8.4 7.5 83 1.3 WSW 7 9 4 5 1025.1 1025.1 0.0
26/05:00am 10.5 7.9 7.7 83 1.3 NW 11 13 6 7 1025.1 1025.1 0.0
26/04:30am 10.3 7.9 7.0 80 1.6 NW 9 15 5 8 1025.0 1025.0 0.0
26/04:00am 10.0 7.6 7.1 82 1.4 NW 9 11 5 6 1024.9 1024.9 0.0
26/03:30am 10.8 7.2 6.9 77 1.8 NW 15 22 8 12 1024.8 1024.8 0.0
26/03:00am 10.3 7.9 7.0 80 1.6 NNW 9 15 5 8 1025.0 1025.0 0.0
26/02:30am 9.9 7.3 6.3 78 1.7 NNW 9 13 5 7 1025.2 1025.2 0.0
26/02:00am 10.5 5.5 6.6 77 1.8 NNW 22 24 12 13 1025.1 1025.1 0.0
26/01:30am 10.6 5.7 6.9 78 1.8 NNW 22 26 12 14 1025.1 1025.1 0.0
26/01:00am 10.5 5.2 6.6 77 1.8 NNW 24 28 13 15 1025.0 1025.0 0.0
26/12:30am 10.6 5.3 6.6 76 1.9 NNW 24 28 13 15 1025.0 1025.0 0.0
26/12:00am 10.7 4.6 6.5 75 2.0 NNW 28 32 15 17 1025.2 1025.2 0.0
 
Date/Time
EST
Tmp

°C
App
Tmp
°C
Dew
Point
°C
Rel
Hum
%
Delta-T

°C
Wind Press
QNH
hPa
Press
MSL
hPa
Rain
since
9 am
mm
Dir
 
Spd
km/h
Gust
km/h
Spd
kts
Gust
kts
25/11:30pm 10.7 4.6 6.6 76 1.9 NNW 28 32 15 17 1025.1 1025.1 0.0
25/11:00pm 10.7 5.3 6.3 74 2.0 NNW 24 30 13 16 1025.1 1025.1 0.0
25/10:30pm 10.7 5.4 6.6 76 1.9 NNW 24 30 13 16 1025.3 1025.3 0.0
25/10:00pm 10.4 5.4 6.4 76 1.9 NNW 22 26 12 14 1025.7 1025.7 0.0
25/09:30pm 10.4 5.4 6.4 76 1.9 NNW 22 26 12 14 1025.8 1025.8 0.0
25/09:00pm 10.0 6.3 6.3 78 1.7 NW 15 17 8 9 1025.8 1025.8 0.0
25/08:30pm 10.3 5.8 6.1 75 1.9 WNW 19 22 10 12 1025.9 1025.9 0.0
25/08:00pm 10.5 7.9 6.1 74 2.0 NW 9 13 5 7 1026.3 1026.3 0.0
25/07:30pm 10.2 7.3 6.4 77 1.8 WNW 11 15 6 8 1026.3 1026.3 0.0
25/07:00pm 10.5 7.9 6.3 75 1.9 NW 9 13 5 7 1026.1 1026.1 0.0
25/06:30pm 10.8 9.3 6.6 75 2.0 WNW 4 6 2 3 1026.2 1026.2 0.0
25/06:00pm 11.4 10.0 7.3 76 2.0 WNW 4 6 2 3 1026.0 1026.0 0.0
25/05:30pm 11.6 9.6 6.9 73 2.2 WNW 7 9 4 5 1025.6 1025.6 0.0
25/05:00pm 12.0 9.3 7.5 74 2.2 NNW 11 13 6 7 1025.5 1025.5 0.0
25/04:30pm 12.4 11.6 6.7 68 2.7 CALM 0 0 0 0 1025.5 1025.5 0.0
25/04:00pm 12.9 11.1 7.1 68 2.8 WNW 6 9 3 5 1025.6 1025.6 0.0
25/03:30pm 13.0 11.3 7.5 69 2.7 N 6 7 3 4 1025.8 1025.8 0.0
25/03:00pm 12.8 10.8 7.0 68 2.8 NNE 7 7 4 4 1025.8 1025.8 0.0
25/02:30pm 13.6 10.4 6.7 63 3.3 WNW 13 17 7 9 1025.8 1025.8 0.0
25/02:00pm 13.4 10.9 6.7 64 3.2 W 9 15 5 8 1025.9 1025.9 0.0
25/01:30pm 13.2 10.3 6.5 64 3.2 NNW 11 15 6 8 1026.0 1026.0 0.0
25/01:00pm 12.6 9.6 6.2 65 3.0 N 11 15 6 8 1026.3 1026.3 0.0
25/12:30pm 12.7 9.4 6.3 65 3.0 N 13 15 7 8 1026.5 1026.5 0.0
25/12:00pm 12.2 9.5 5.4 63 3.1 N 9 13 5 7 1026.9 1026.9 0.0
25/11:30am 11.6 8.6 5.9 68 2.7 N 11 13 6 7 1027.3 1027.3 0.0
25/11:00am 11.2 8.6 5.9 70 2.4 N 9 11 5 6 1027.8 1027.8 0.0
25/10:30am 10.6 8.2 5.2 69 2.5 NNW 7 9 4 5 1028.0 1028.0 0.0
25/10:00am 9.3 5.3 4.7 73 2.0 NW 15 19 8 10 1028.0 1028.0 0.0
25/09:30am 9.8 5.4 4.6 70 2.3 WNW 17 22 9 12 1028.1 1028.1 0.0
25/09:00am 9.5 5.1 4.7 72 2.1 NW 17 20 9 11 1028.2 1028.2 0.0
25/08:30am 8.7 3.6 4.1 73 2.0 WNW 20 26 11 14 1028.3 1028.3 0.0
25/08:00am 8.0 4.7 4.4 78 1.6 WNW 11 15 6 8 1028.4 1028.4 0.0
25/07:30am 7.9 3.1 4.5 79 1.5 WNW 19 24 10 13 1028.2 1028.2 0.0
25/07:00am 7.9 3.8 4.3 78 1.6 W 15 17 8 9 1028.0 1028.0 0.0
25/06:30am 8.3 4.2 4.5 77 1.7 NW 15 17 8 9 1027.9 1027.9 0.0
25/06:00am 8.0 3.6 4.8 80 1.4 WNW 17 20 9 11 1027.7 1027.7 0.0
25/05:30am 8.1 4.4 4.7 79 1.5 WNW 13 17 7 9 1027.7 1027.7 0.0
25/05:00am 7.9 3.5 4.7 80 1.4 WNW 17 20 9 11 1027.7 1027.7 0.0
25/04:30am 7.8 3.4 4.7 81 1.4 WNW 17 20 9 11 1027.9 1027.9 0.0
25/04:00am 7.5 3.5 5.1 85 1.1 WNW 15 17 8 9 1027.9 1027.9 0.0
25/03:30am 7.3 3.2 4.4 82 1.3 WNW 15 17 8 9 1027.9 1027.9 0.0
25/03:00am 7.4 5.8 6.2 92 0.5 N 4 6 2 3 1028.1 1028.1 0.0
25/02:30am 7.7 6.8 6.0 89 0.8 CALM 0 4 0 2 1028.3 1028.3 0.0
25/02:00am 7.4 5.3 5.9 90 0.7 WNW 6 7 3 4 1028.3 1028.3 0.0
25/01:30am 7.7 6.4 6.2 90 0.7 NW 2 4 1 2 1028.2 1028.2 0.0
25/01:00am 7.6 5.9 6.1 90 0.7 WNW 4 6 2 3 1028.2 1028.2 0.0
25/12:30am 8.2 7.4 6.5 89 0.8 CALM 0 0 0 0 1028.3 1028.3 0.0
25/12:00am 8.0 7.2 6.6 91 0.6 CALM 0 0 0 0 1028.4 1028.4 0.0
 
Date/Time
EST
Tmp

°C
App
Tmp
°C
Dew
Point
°C
Rel
Hum
%
Delta-T

°C
Wind Press
QNH
hPa
Press
MSL
hPa
Rain
since
9 am
mm
Dir
 
Spd
km/h
Gust
km/h
Spd
kts
Gust
kts
24/11:30pm 8.3 7.2 6.9 91 0.7 WNW 2 2 1 1 1028.6 1028.6 0.0
24/11:00pm 7.9 6.3 6.5 91 0.6 WNW 4 6 2 3 1028.4 1028.4 0.0
24/10:30pm 7.5 5.5 6.1 91 0.6 W 6 9 3 5 1028.5 1028.5 0.0
24/10:00pm 8.1 7.0 6.9 92 0.6 W 2 2 1 1 1028.5 1028.5 0.0
24/09:30pm 7.5 5.3 6.1 91 0.6 W 7 9 4 5 1028.7 1028.7 0.0
24/09:00pm 7.4 5.1 5.9 90 0.7 W 7 9 4 5 1028.5 1028.5 0.0
24/08:30pm 7.8 5.8 6.3 90 0.7 W 6 7 3 4 1028.6 1028.6 0.0
24/08:00pm 8.0 7.0 5.8 86 1.0 CALM 0 2 0 1 1028.6 1028.6 0.0
24/07:30pm 8.9 7.3 6.2 83 1.2 SW 4 4 2 2 1028.8 1028.8 0.0
24/07:00pm 8.4 6.3 5.9 84 1.1 WSW 6 6 3 3 1028.7 1028.7 0.0
24/06:30pm 8.6 7.1 5.0 78 1.6 N 2 6 1 3 1028.4 1028.4 0.0
24/06:00pm 7.6 5.2 4.4 80 1.4 ENE 6 6 3 3 1028.3 1028.3 0.0
24/05:30pm 7.8 5.2 4.2 78 1.6 ENE 7 9 4 5 1028.3 1028.3 0.0
24/05:00pm 8.5 5.9 4.1 74 1.9 NE 7 7 4 4 1028.2 1028.2 0.0
24/04:30pm 9.2 6.6 4.2 71 2.2 NNE 7 9 4 5 1028.1 1028.1 0.0
24/04:00pm 10.2 7.7 4.6 68 2.5 N 7 9 4 5 1028.1 1028.1 0.0
24/03:30pm 10.5 7.5 4.2 65 2.8 N 9 11 5 6 1028.1 1028.1 0.0
24/03:00pm 10.9 7.8 3.7 61 3.2 N 9 15 5 8 1028.0 1028.0 0.0
24/02:30pm 11.0 7.9 3.5 60 3.3 N 9 11 5 6 1028.0 1028.0 0.0
24/02:00pm 10.8 8.3 3.6 61 3.1 N 6 7 3 4 1028.3 1028.3 0.0
24/01:30pm 10.4 7.7 3.9 64 2.9 N 7 9 4 5 1028.4 1028.4 0.0
24/01:00pm 10.5 7.9 4.2 65 2.8 N 7 9 4 5 1028.6 1028.6 0.0
24/12:30pm 9.9 7.3 4.1 67 2.6 N 7 9 4 5 1028.7 1028.7 0.0
24/12:00pm 9.8 7.6 5.4 74 2.0 N 6 7 3 4 1029.0 1029.0 0.0
24/11:30am 9.9 8.0 5.1 72 2.2 NW 4 6 2 3 1029.4 1029.5 0.0
24/11:00am 9.8 8.0 5.4 74 2.0 WNW 4 7 2 4 1029.6 1029.7 0.0
24/10:30am 9.1 7.7 5.3 77 1.7 SW 2 4 1 2 1029.8 1029.9 0.0
24/10:00am 8.6 6.8 5.4 80 1.4 W 4 4 2 2 1029.9 1030.0 0.0
24/09:30am 8.3 6.5 5.4 82 1.3 WNW 4 6 2 3 1030.0 1030.1 0.0
24/09:00am 7.9 5.4 4.5 79 1.5 NW 7 7 4 4 1030.1 1030.2 0.0
24/08:30am 6.7 3.3 3.9 82 1.2 NW 11 15 6 8 1029.8 1029.9 0.0
24/08:00am 6.5 3.5 4.2 85 1.0 NW 9 13 5 7 1029.5 1029.6 0.0
24/07:30am 5.9 2.5 3.9 87 0.8 WNW 11 13 6 7 1029.4 1029.5 0.0
24/07:00am 6.7 4.2 4.5 86 0.9 WNW 7 9 4 5 1029.2 1029.2 0.0
24/06:30am 6.5 3.5 4.2 85 1.0 W 9 11 5 6 1029.2 1029.2 0.0
24/06:00am 6.5 2.7 4.0 84 1.1 W 13 15 7 8 1028.9 1028.9 0.0
24/05:30am 6.5 3.1 3.8 83 1.1 WNW 11 13 6 7 1028.8 1028.8 0.0
24/05:00am 7.0 4.3 3.8 80 1.4 WNW 7 9 4 5 1028.4 1028.4 0.0
24/04:30am 7.0 4.5 3.8 80 1.4 NW 6 13 3 7 1028.3 1028.3 0.0
24/04:00am 7.5 5.4 3.9 78 1.5 NNW 4 9 2 5 1028.3 1028.3 0.0
24/03:30am 7.9 3.0 4.1 77 1.6 W 19 20 10 11 1028.2 1028.2 0.0
24/03:00am 7.5 2.4 3.9 78 1.5 W 20 24 11 13 1028.2 1028.2 0.0
24/02:30am 7.3 2.2 4.1 80 1.4 WNW 20 24 11 13 1028.5 1028.5 0.0
24/02:00am 7.1 2.6 4.2 82 1.2 W 17 20 9 11 1028.6 1028.6 0.0
24/01:30am 7.1 2.2 4.1 81 1.3 W 19 22 10 12 1028.4 1028.4 0.0
24/01:00am 7.3 2.7 3.9 79 1.4 WNW 17 20 9 11 1028.4 1028.4 0.0
24/12:30am 7.2 3.7 3.4 77 1.6 WNW 11 15 6 8 1028.5 1028.5 0.0
24/12:00am 7.9 4.4 3.6 74 1.8 NNW 11 13 6 7 1028.5 1028.5 0.0
 
Date/Time
EST
Tmp

°C
App
Tmp
°C
Dew
Point
°C
Rel
Hum
%
Delta-T

°C
Wind Press
QNH
hPa
Press
MSL
hPa
Rain
since
9 am
mm
Dir
 
Spd
km/h
Gust
km/h
Spd
kts
Gust
kts
23/11:30pm 8.2 4.4 3.7 73 1.9 NNW 13 15 7 8 1028.4 1028.4 0.0
23/11:00pm 8.0 4.7 4.8 80 1.4 NW 11 15 6 8 1028.2 1028.2 0.0
23/10:30pm 8.3 4.2 4.3 76 1.8 W 15 19 8 10 1028.3 1028.3 0.0
23/10:00pm 8.9 5.2 4.3 73 2.0 W 13 17 7 9 1028.4 1028.4 0.0

Latest Capital City Observations: Canberra | Sydney | Melbourne | Brisbane | Adelaide | Perth | Hobart | Darwin

Other Formats:

Comma delimited format used in spreadsheet applications
http://www.bom.gov.au/fwo/IDT60901/IDT60901.95988.axf

JavaScript Object Notation format (JSON) in row-major order
http://www.bom.gov.au/fwo/IDT60901/IDT60901.95988.json